createdAt,value
2017-06-24T04:00:32.092Z,58.25
2017-06-24T04:00:57.567Z,58.18
2017-06-24T04:01:23.055Z,57.77
2017-06-24T04:01:48.533Z,57.87
2017-06-24T04:02:14.014Z,58.06
2017-06-24T04:02:39.515Z,58.35
2017-06-24T04:03:04.979Z,58.15
2017-06-24T04:03:30.463Z,57.97
2017-06-24T04:03:55.922Z,58.25
2017-06-24T04:04:21.408Z,58.25
2017-06-24T04:04:46.880Z,58.35
2017-06-24T04:05:12.354Z,58.45
2017-06-24T04:05:37.833Z,58.83
2017-06-24T04:06:03.333Z,58.73
2017-06-24T04:06:28.796Z,58.54
2017-06-24T04:06:54.287Z,58.35
2017-06-24T04:07:19.774Z,58.73
2017-06-24T04:07:45.263Z,58.45
2017-06-24T04:08:10.734Z,59.12
2017-06-24T04:08:36.199Z,58.92
2017-06-24T04:09:01.691Z,58.54
2017-06-24T04:09:27.155Z,58.64
2017-06-24T04:09:52.624Z,58.64
2017-06-24T04:10:18.116Z,58.45
2017-06-24T04:10:43.583Z,58.35
2017-06-24T04:11:09.075Z,58.54
2017-06-24T04:11:34.542Z,58.54
2017-06-24T04:12:00.015Z,58.45
2017-06-24T04:12:25.474Z,58.73
2017-06-24T04:12:50.951Z,58.35
2017-06-24T04:13:16.425Z,58.45
2017-06-24T04:13:41.887Z,58.64
2017-06-24T04:14:07.374Z,58.73
2017-06-24T04:14:32.806Z,58.45
2017-06-24T04:14:58.275Z,58.64
2017-06-24T04:15:23.753Z,58.54
2017-06-24T04:15:49.241Z,58.45
2017-06-24T04:16:14.683Z,58.64
2017-06-24T04:16:40.138Z,58.64
2017-06-24T04:17:05.604Z,58.54
2017-06-24T04:17:31.075Z,58.54
2017-06-24T04:17:56.557Z,58.54
2017-06-24T04:18:22.016Z,58.73
2017-06-24T04:18:47.514Z,58.83
2017-06-24T04:19:13.004Z,58.54
2017-06-24T04:19:38.491Z,58.64
2017-06-24T04:20:03.946Z,58.92
2017-06-24T04:20:29.433Z,58.92
2017-06-24T04:20:54.933Z,59.22
2017-06-24T04:21:20.404Z,58.64
2017-06-24T04:21:45.902Z,58.64
2017-06-24T04:22:11.387Z,58.92
2017-06-24T04:22:36.861Z,59.12
2017-06-24T04:23:02.297Z,59.12
2017-06-24T04:23:27.777Z,59.02
2017-06-24T04:23:53.267Z,58.92
2017-06-24T04:24:18.739Z,58.92
2017-06-24T04:24:44.249Z,58.83
2017-06-24T04:25:09.757Z,59.5
2017-06-24T04:25:35.245Z,59.41
2017-06-24T04:26:00.720Z,59.28
2017-06-24T04:26:26.207Z,59.31
2017-06-24T04:26:51.671Z,59.6
2017-06-24T04:27:17.145Z,59.22
2017-06-24T04:27:42.638Z,59.5
2017-06-24T04:28:08.093Z,59.47
2017-06-24T04:28:33.590Z,59.6
2017-06-24T04:28:59.056Z,59.5
2017-06-24T04:29:24.576Z,59.5
2017-06-24T04:29:50.063Z,59.6
2017-06-24T04:30:15.553Z,59.02
2017-06-24T04:30:41.037Z,59.22
2017-06-24T04:31:06.534Z,59.02
2017-06-24T04:31:32.018Z,59.02
2017-06-24T04:31:57.486Z,59.12
2017-06-24T04:32:22.948Z,59.6
2017-06-24T04:32:48.423Z,58.92
2017-06-24T04:33:13.911Z,59.22
2017-06-24T04:33:39.421Z,59.02
2017-06-24T04:34:04.889Z,58.92
2017-06-24T04:34:30.393Z,59.12
2017-06-24T04:34:55.875Z,59.5
2017-06-24T04:35:21.342Z,59.6
2017-06-24T04:35:46.800Z,59.6
2017-06-24T04:36:12.297Z,60.08
2017-06-24T04:36:37.768Z,59.22
2017-06-24T04:37:03.251Z,59.69
2017-06-24T04:37:28.746Z,59.89
2017-06-24T04:37:54.212Z,59.12
2017-06-24T04:38:19.705Z,58.92
2017-06-24T04:38:45.177Z,59.02
2017-06-24T04:39:10.678Z,59.02
2017-06-24T04:39:36.141Z,59.5
2017-06-24T04:40:01.653Z,58.92
2017-06-24T04:40:27.178Z,59.02
2017-06-24T04:40:52.677Z,59.02
2017-06-24T04:41:18.167Z,59.22
2017-06-24T04:41:43.620Z,59.31
2017-06-24T04:42:09.120Z,59.31
2017-06-24T04:42:34.609Z,59.12
2017-06-24T04:43:00.100Z,59.5
2017-06-24T04:43:25.568Z,59.6
2017-06-24T04:43:51.080Z,59.5
2017-06-24T04:44:16.570Z,59.79
2017-06-24T04:44:42.036Z,59.5
2017-06-24T04:45:07.542Z,59.5
2017-06-24T04:45:33.047Z,59.22
2017-06-24T04:45:58.561Z,59.02
2017-06-24T04:46:24.043Z,58.92
2017-06-24T04:46:49.491Z,58.92
2017-06-24T04:47:14.962Z,59.22
2017-06-24T04:47:40.438Z,59.6
2017-06-24T04:48:05.923Z,59.31
2017-06-24T04:48:31.393Z,59.5
2017-06-24T04:48:56.894Z,59.31
2017-06-24T04:49:22.362Z,59.41
2017-06-24T04:49:47.824Z,59.6
2017-06-24T04:50:13.297Z,59.22
2017-06-24T04:50:38.766Z,59.02
2017-06-24T04:51:04.242Z,59.22
2017-06-24T04:51:29.723Z,59.5
2017-06-24T04:51:55.202Z,59.5
2017-06-24T04:52:20.684Z,59.41
2017-06-24T04:52:46.177Z,59.41
2017-06-24T04:53:11.657Z,59.5
2017-06-24T04:53:37.160Z,59.31
2017-06-24T04:54:02.645Z,59.31
2017-06-24T04:54:28.131Z,59.41
2017-06-24T04:54:53.642Z,59.22
2017-06-24T04:55:19.143Z,59.41
2017-06-24T04:55:44.596Z,59.69
2017-06-24T04:56:10.068Z,59.41
2017-06-24T04:56:35.548Z,59.41
2017-06-24T04:57:00.974Z,59.79
2017-06-24T04:57:26.469Z,59.69
2017-06-24T04:57:51.958Z,59.69
2017-06-24T04:58:49.955Z,59.5
2017-06-24T04:59:15.442Z,59.6
2017-06-24T04:59:40.922Z,59.69
2017-06-24T05:00:06.409Z,59.31
2017-06-24T05:00:31.891Z,59.5
2017-06-24T05:00:57.393Z,59.41
2017-06-24T05:01:22.868Z,59.41
2017-06-24T05:01:48.319Z,59.22
2017-06-24T05:02:13.791Z,59.31
2017-06-24T05:02:39.284Z,59.5
2017-06-24T05:03:04.760Z,59.41
2017-06-24T05:03:30.227Z,59.12
2017-06-24T05:03:55.687Z,59.79
2017-06-24T05:04:21.150Z,59.69
2017-06-24T05:04:46.611Z,58.92
2017-06-24T05:05:12.100Z,59.22
2017-06-24T05:05:37.572Z,59.31
2017-06-24T05:06:03.034Z,59.12
2017-06-24T05:06:28.510Z,58.83
2017-06-24T05:06:53.974Z,59.5
2017-06-24T05:07:19.453Z,59.12
2017-06-24T05:07:44.943Z,59.31
2017-06-24T05:08:10.432Z,58.92
2017-06-24T05:08:35.919Z,58.92
2017-06-24T05:09:01.375Z,59.02
2017-06-24T05:09:26.857Z,59.69
2017-06-24T05:09:52.367Z,59.31
2017-06-24T05:10:17.809Z,59.41
2017-06-24T05:10:43.294Z,59.31
2017-06-24T05:11:08.765Z,59.31
2017-06-24T05:11:34.247Z,59.44
2017-06-24T05:11:59.733Z,59.5
2017-06-24T05:12:25.206Z,58.95
2017-06-24T05:12:50.676Z,59.41
2017-06-24T05:13:16.180Z,59.31
2017-06-24T05:13:41.640Z,59.41
2017-06-24T05:14:07.121Z,59.69
2017-06-24T05:14:32.606Z,59.6
2017-06-24T05:14:58.074Z,59.69
2017-06-24T05:15:23.554Z,59.63
2017-06-24T05:15:49.032Z,59.41
2017-06-24T05:16:14.521Z,59.31
2017-06-24T05:16:39.974Z,59.41
2017-06-24T05:17:05.445Z,59.41
2017-06-24T05:17:30.918Z,59.31
2017-06-24T05:17:56.385Z,59.31
2017-06-24T05:18:21.858Z,59.31
2017-06-24T05:18:47.309Z,59.31
2017-06-24T05:19:12.789Z,59.31
2017-06-24T05:19:38.257Z,59.6
2017-06-24T05:20:03.747Z,59.6
2017-06-24T05:20:29.219Z,59.99
2017-06-24T05:20:54.714Z,59.6
2017-06-24T05:21:20.203Z,59.5
2017-06-24T05:21:45.678Z,59.6
2017-06-24T05:22:11.134Z,59.5
2017-06-24T05:22:36.612Z,59.6
2017-06-24T05:23:02.073Z,59.89
2017-06-24T05:23:27.557Z,59.89
2017-06-24T05:23:53.042Z,59.89
2017-06-24T05:24:18.493Z,59.89
2017-06-24T05:24:43.950Z,59.79
2017-06-24T05:25:09.410Z,59.89
2017-06-24T05:25:34.913Z,59.99
2017-06-24T05:26:00.393Z,59.69
2017-06-24T05:26:25.851Z,59.6
2017-06-24T05:26:51.321Z,59.69
2017-06-24T05:27:16.840Z,59.89
2017-06-24T05:27:42.329Z,59.79
2017-06-24T05:28:07.787Z,59.89
2017-06-24T05:28:33.250Z,59.69
2017-06-24T05:28:58.745Z,59.69
2017-06-24T05:29:24.217Z,59.79
2017-06-24T05:29:49.708Z,59.6
2017-06-24T05:30:15.200Z,59.79
2017-06-24T05:30:40.673Z,59.99
2017-06-24T05:31:06.136Z,59.89
2017-06-24T05:31:31.625Z,59.79
2017-06-24T05:31:57.076Z,59.69
2017-06-24T05:32:22.550Z,59.89
2017-06-24T05:32:48.028Z,59.79
2017-06-24T05:33:13.493Z,59.69
2017-06-24T05:33:38.963Z,59.79
2017-06-24T05:34:04.458Z,59.79
2017-06-24T05:34:29.943Z,60.46
2017-06-24T05:34:55.422Z,60.56
2017-06-24T05:35:20.908Z,60.37
2017-06-24T05:35:46.375Z,60.37
2017-06-24T05:36:11.854Z,60.08
2017-06-24T05:36:37.358Z,59.89
2017-06-24T05:37:02.804Z,60.27
2017-06-24T05:37:28.278Z,60.27
2017-06-24T05:37:53.767Z,60.46
2017-06-24T05:38:19.257Z,60.27
2017-06-24T05:38:44.729Z,60.27
2017-06-24T05:39:10.183Z,60.17
2017-06-24T05:39:35.657Z,60.66
2017-06-24T05:40:01.143Z,60.66
2017-06-24T05:40:26.615Z,60.46
2017-06-24T05:40:52.877Z,60.27
2017-06-24T05:41:18.357Z,60.08
2017-06-24T05:41:43.849Z,60.46
2017-06-24T05:42:09.290Z,60.27
2017-06-24T05:42:34.755Z,60.75
2017-06-24T05:43:00.207Z,60.46
2017-06-24T05:43:25.671Z,60.27
2017-06-24T05:43:51.174Z,60.37
2017-06-24T05:44:16.636Z,60.37
2017-06-24T05:44:42.135Z,60.17
2017-06-24T05:45:07.613Z,60.37
2017-06-24T05:45:33.109Z,60.37
2017-06-24T05:45:58.584Z,60.08
2017-06-24T05:46:24.090Z,59.6
2017-06-24T05:46:49.567Z,59.79
2017-06-24T05:47:15.045Z,60.37
2017-06-24T05:47:40.514Z,60.46
2017-06-24T05:48:05.978Z,60.56
2017-06-24T05:48:31.455Z,59.79
2017-06-24T05:48:56.942Z,59.99
2017-06-24T05:49:22.418Z,60.08
2017-06-24T05:49:47.875Z,60.27
2017-06-24T05:50:13.378Z,60.17
2017-06-24T05:50:38.836Z,60.17
2017-06-24T05:51:04.341Z,60.08
2017-06-24T05:51:29.842Z,60.08
2017-06-24T05:51:55.330Z,60.08
2017-06-24T05:52:20.806Z,60.17
2017-06-24T05:52:46.264Z,60.08
2017-06-24T05:53:11.734Z,60.46
2017-06-24T05:53:37.212Z,60.85
2017-06-24T05:54:02.700Z,60.37
2017-06-24T05:54:28.160Z,60.56
2017-06-24T05:54:53.697Z,60.56
2017-06-24T05:55:19.168Z,60.46
2017-06-24T05:55:44.644Z,60.46
2017-06-24T05:56:10.112Z,60.46
2017-06-24T05:56:35.575Z,60.66
2017-06-24T05:57:01.062Z,60.85
2017-06-24T05:57:26.512Z,60.75
2017-06-24T05:57:52.016Z,60.56
2017-06-24T05:58:17.495Z,60.66
2017-06-24T05:58:42.960Z,61.23
2017-06-24T05:59:08.433Z,60.85
2017-06-24T05:59:33.930Z,60.56
2017-06-24T05:59:59.392Z,60.85
2017-06-24T06:00:24.853Z,61.14
2017-06-24T06:00:50.346Z,61.14
2017-06-24T06:01:15.833Z,61.04
2017-06-24T06:01:41.301Z,61.23
2017-06-24T06:02:06.776Z,60.85
2017-06-24T06:02:32.266Z,60.56
2017-06-24T06:02:57.748Z,61.43
2017-06-24T06:03:23.242Z,61.14
2017-06-24T06:03:48.706Z,61.14
2017-06-24T06:04:14.180Z,60.85
2017-06-24T06:04:39.697Z,60.56
2017-06-24T06:05:05.176Z,60.66
2017-06-24T06:05:30.684Z,60.66
2017-06-24T06:05:56.203Z,60.75
2017-06-24T06:06:21.702Z,60.66
2017-06-24T06:06:47.175Z,61.04
2017-06-24T06:07:12.648Z,60.94
2017-06-24T06:07:38.147Z,60.94
2017-06-24T06:08:03.646Z,60.85
2017-06-24T06:08:29.090Z,60.75
2017-06-24T06:08:54.549Z,60.56
2017-06-24T06:09:20.037Z,60.66
2017-06-24T06:09:45.537Z,60.85
2017-06-24T06:10:11.015Z,61.04
2017-06-24T06:10:36.507Z,60.85
2017-06-24T06:11:02.004Z,60.75
2017-06-24T06:11:27.475Z,60.85
2017-06-24T06:11:52.957Z,61.23
2017-06-24T06:12:18.420Z,61.14
2017-06-24T06:12:43.898Z,61.23
2017-06-24T06:13:09.386Z,60.75
2017-06-24T06:13:34.841Z,60.85
2017-06-24T06:14:00.325Z,60.94
2017-06-24T06:14:25.795Z,61.14
2017-06-24T06:14:51.273Z,61.14
2017-06-24T06:15:16.749Z,61.33
2017-06-24T06:15:42.208Z,61.04
2017-06-24T06:16:07.676Z,61.04
2017-06-24T06:16:33.172Z,60.75
2017-06-24T06:16:58.644Z,61.14
2017-06-24T06:17:24.138Z,61.14
2017-06-24T06:17:49.617Z,61.23
2017-06-24T06:18:15.133Z,60.85
2017-06-24T06:18:40.622Z,61.04
2017-06-24T06:19:06.107Z,60.94
2017-06-24T06:19:31.600Z,61.23
2017-06-24T06:19:57.058Z,61.23
2017-06-24T06:20:22.548Z,61.71
2017-06-24T06:20:48.025Z,61.52
2017-06-24T06:21:13.546Z,61.61
2017-06-24T06:21:39.022Z,61.23
2017-06-24T06:22:04.511Z,61.43
2017-06-24T06:22:30.006Z,61.43
2017-06-24T06:22:55.495Z,61.52
2017-06-24T06:23:20.977Z,61.52
2017-06-24T06:23:46.459Z,61.43
2017-06-24T06:24:11.928Z,61.52
2017-06-24T06:24:37.416Z,61.14
2017-06-24T06:25:02.877Z,61.52
2017-06-24T06:25:28.393Z,61.52
2017-06-24T06:25:53.867Z,61.61
2017-06-24T06:26:19.360Z,61.23
2017-06-24T06:26:44.862Z,61.23
2017-06-24T06:27:10.345Z,61.33
2017-06-24T06:27:35.794Z,61.52
2017-06-24T06:28:01.294Z,61.43
2017-06-24T06:28:26.777Z,61.52
2017-06-24T06:28:52.279Z,61.43
2017-06-24T06:29:17.769Z,61.52
2017-06-24T06:29:43.245Z,61.61
2017-06-24T06:30:08.729Z,61.71
2017-06-24T06:30:34.205Z,61.23
2017-06-24T06:30:59.709Z,61.52
2017-06-24T06:31:25.169Z,61.14
2017-06-24T06:31:50.670Z,61.52
2017-06-24T06:32:16.166Z,61.52
2017-06-24T06:32:41.663Z,61.04
2017-06-24T06:33:07.118Z,61.14
2017-06-24T06:33:32.576Z,61.33
2017-06-24T06:33:58.031Z,61.33
2017-06-24T06:34:23.522Z,61.52
2017-06-24T06:34:48.991Z,61.43
2017-06-24T06:35:14.480Z,61.14
2017-06-24T06:35:39.931Z,61.52
2017-06-24T06:36:05.426Z,61.04
2017-06-24T06:36:30.918Z,61.61
2017-06-24T06:36:56.385Z,61.33
2017-06-24T06:37:21.896Z,61.14
2017-06-24T06:37:47.382Z,61.52
2017-06-24T06:38:12.848Z,61.23
2017-06-24T06:38:38.321Z,61.52
2017-06-24T06:39:03.810Z,61.43
2017-06-24T06:39:29.280Z,61.14
2017-06-24T06:39:54.730Z,61.33
2017-06-24T06:40:20.225Z,61.71
2017-06-24T06:40:45.713Z,61.52
2017-06-24T06:41:11.200Z,61.52
2017-06-24T06:41:36.665Z,61.07
2017-06-24T06:42:02.183Z,61.14
2017-06-24T06:42:27.655Z,61.43
2017-06-24T06:42:53.135Z,61.36
2017-06-24T06:43:18.605Z,61.33
2017-06-24T06:43:44.062Z,61.71
2017-06-24T06:44:09.556Z,61.26
2017-06-24T06:44:35.033Z,61.07
2017-06-24T06:45:00.542Z,61.16
2017-06-24T06:45:26.046Z,61.04
2017-06-24T06:45:51.541Z,60.97
2017-06-24T06:46:17.014Z,60.97
2017-06-24T06:46:42.480Z,61.16
2017-06-24T06:47:07.949Z,61.46
2017-06-24T06:47:33.419Z,60.69
2017-06-24T06:47:58.907Z,60.97
2017-06-24T06:48:24.386Z,60.97
2017-06-24T06:48:49.856Z,60.69
2017-06-24T06:49:15.341Z,60.69
2017-06-24T06:49:40.862Z,60.69
2017-06-24T06:50:06.301Z,60.78
2017-06-24T06:50:31.813Z,60.69
2017-06-24T06:50:57.280Z,60.59
2017-06-24T06:51:22.746Z,60.69
2017-06-24T06:51:48.218Z,60.69
2017-06-24T06:52:13.684Z,60.69
2017-06-24T06:52:39.140Z,60.69
2017-06-24T06:53:04.608Z,60.3
2017-06-24T06:53:30.094Z,60.62
2017-06-24T06:53:55.602Z,60.59
2017-06-24T06:54:21.057Z,60.3
2017-06-24T06:54:46.526Z,60.14
2017-06-24T06:55:12.022Z,60.04
2017-06-24T06:55:37.500Z,59.85
2017-06-24T06:56:02.968Z,60.14
2017-06-24T06:56:28.437Z,59.75
2017-06-24T06:56:53.909Z,59.27
2017-06-24T06:57:19.409Z,59.66
2017-06-24T06:57:44.879Z,59.56
2017-06-24T06:58:10.352Z,58.98
2017-06-24T06:58:36.039Z,58.98
2017-06-24T06:59:01.495Z,59.11
2017-06-24T06:59:26.983Z,59.11
2017-06-24T06:59:52.442Z,59.2
2017-06-24T07:00:17.919Z,58.92
2017-06-24T07:00:43.375Z,59.01
2017-06-24T07:01:08.834Z,58.72
2017-06-24T07:01:34.331Z,58.34
2017-06-24T07:01:59.776Z,58.34
2017-06-24T07:02:25.216Z,58.53
2017-06-24T07:02:50.721Z,58.34
2017-06-24T07:03:16.156Z,58.34
2017-06-24T07:03:41.601Z,58.17
2017-06-24T07:04:07.119Z,57.95
2017-06-24T07:04:32.648Z,57.86
2017-06-24T07:04:58.145Z,57.37
2017-06-24T07:05:23.616Z,57.37
2017-06-24T07:05:49.085Z,58.05
2017-06-24T07:06:14.531Z,57.86
2017-06-24T07:06:40.014Z,58.17
2017-06-24T07:07:05.487Z,57.95
2017-06-24T07:07:30.917Z,57.37
2017-06-24T07:07:56.426Z,57.4
2017-06-24T07:08:21.872Z,57.67
2017-06-24T07:08:47.363Z,57.5
2017-06-24T07:09:12.845Z,57.37
2017-06-24T07:09:38.334Z,57.18
2017-06-24T07:10:03.788Z,57.47
2017-06-24T07:10:29.278Z,58.05
2017-06-24T07:10:54.764Z,58.05
2017-06-24T07:11:20.246Z,57.76
2017-06-24T07:11:45.720Z,57.86
2017-06-24T07:12:11.196Z,58.44
2017-06-24T07:12:36.678Z,57.67
2017-06-24T07:13:02.151Z,58.05
2017-06-24T07:13:27.641Z,57.98
2017-06-24T07:13:53.154Z,57.28
2017-06-24T07:14:18.628Z,57.4
2017-06-24T07:14:44.111Z,57.37
2017-06-24T07:15:09.603Z,57.86
2017-06-24T07:15:35.075Z,57.18
2017-06-24T07:16:00.536Z,57.57
2017-06-24T07:16:26.030Z,57.37
2017-06-24T07:16:51.477Z,57.37
2017-06-24T07:17:16.970Z,57.57
2017-06-24T07:17:42.444Z,58.15
2017-06-24T07:18:07.928Z,57.95
2017-06-24T07:18:33.382Z,58.05
2017-06-24T07:18:58.838Z,58.05
2017-06-24T07:19:24.314Z,57.95
2017-06-24T07:19:49.823Z,57.86
2017-06-24T07:20:15.285Z,57.86
2017-06-24T07:20:40.781Z,58.34
2017-06-24T07:21:06.244Z,58.24
2017-06-24T07:21:31.712Z,57.95
2017-06-24T07:21:57.189Z,58.34
2017-06-24T07:22:22.715Z,58.72
2017-06-24T07:22:48.176Z,58.44
2017-06-24T07:23:13.644Z,58.63
2017-06-24T07:23:39.126Z,58.34
2017-06-24T07:24:04.621Z,58.53
2017-06-24T07:24:30.089Z,58.34
2017-06-24T07:24:55.579Z,58.34
2017-06-24T07:25:21.056Z,58.53
2017-06-24T07:25:46.514Z,58.44
2017-06-24T07:26:12.001Z,57.89
2017-06-24T07:26:37.456Z,57.76
2017-06-24T07:27:02.936Z,57.79
2017-06-24T07:27:28.421Z,57.98
2017-06-24T07:27:53.894Z,57.98
2017-06-24T07:28:19.377Z,57.98
2017-06-24T07:28:44.889Z,57.6
2017-06-24T07:29:10.317Z,57.31
2017-06-24T07:29:35.787Z,57.21
2017-06-24T07:30:01.257Z,57.4
2017-06-24T07:30:26.717Z,56.66
2017-06-24T07:30:52.195Z,56.76
2017-06-24T07:31:17.668Z,56.85
2017-06-24T07:31:43.145Z,56.95
2017-06-24T07:32:08.627Z,57.05
2017-06-24T07:32:34.155Z,56.85
2017-06-24T07:32:59.592Z,56.66
2017-06-24T07:33:25.053Z,57.05
2017-06-24T07:33:50.551Z,56.95
2017-06-24T07:34:16.145Z,56.95
2017-06-24T07:34:41.635Z,56.95
2017-06-24T07:35:07.208Z,56.95
2017-06-24T07:35:32.554Z,56.95
2017-06-24T07:35:57.977Z,56.66
2017-06-24T07:36:23.456Z,56.47
2017-06-24T07:36:48.932Z,56.47
2017-06-24T07:37:14.408Z,56.37
2017-06-24T07:37:39.876Z,56.27
2017-06-24T07:38:05.359Z,56.47
2017-06-24T07:38:30.843Z,56.57
2017-06-24T07:38:56.350Z,56.37
2017-06-24T07:39:22.237Z,56.37
2017-06-24T07:39:47.643Z,56.09
2017-06-24T07:40:13.097Z,55.79
2017-06-24T07:40:38.565Z,56.27
2017-06-24T07:41:04.100Z,56.09
2017-06-24T07:41:29.579Z,55.82
2017-06-24T07:41:55.116Z,56.09
2017-06-24T07:42:20.647Z,56.49
2017-06-24T07:42:46.055Z,56.01
2017-06-24T07:43:11.555Z,55.92
2017-06-24T07:43:37.078Z,55.92
2017-06-24T07:44:02.554Z,56.11
2017-06-24T07:44:28.013Z,56.11
2017-06-24T07:44:53.537Z,55.44
2017-06-24T07:45:19.103Z,55.82
2017-06-24T07:45:44.601Z,55.82
2017-06-24T07:46:10.093Z,55.82
2017-06-24T07:46:35.576Z,55.82
2017-06-24T07:47:01.041Z,55.92
2017-06-24T07:47:26.523Z,55.54
2017-06-24T07:47:51.971Z,55.73
2017-06-24T07:48:17.510Z,55.27
2017-06-24T07:48:43.086Z,55.08
2017-06-24T07:49:08.729Z,54.69
2017-06-24T07:49:34.205Z,54.88
2017-06-24T07:49:59.768Z,54.79
2017-06-24T07:50:25.190Z,54.98
2017-06-24T07:50:50.722Z,54.98
2017-06-24T07:51:16.220Z,55.08
2017-06-24T07:51:41.841Z,54.88
2017-06-24T07:52:07.431Z,54.79
2017-06-24T07:52:33.002Z,55.08
2017-06-24T07:52:58.622Z,55.08
2017-06-24T07:53:24.348Z,53.92
2017-06-24T07:53:49.788Z,54.02
2017-06-24T07:54:15.427Z,54.14
2017-06-24T07:54:40.936Z,53.83
2017-06-24T07:55:06.579Z,53.83
2017-06-24T07:55:31.977Z,53.83
2017-06-24T07:55:57.544Z,54.02
2017-06-24T07:56:23.013Z,54.02
2017-06-24T07:56:48.481Z,53.92
2017-06-24T07:57:13.959Z,53.83
2017-06-24T07:57:39.442Z,54.02
2017-06-24T07:58:04.972Z,53.92
2017-06-24T07:58:30.435Z,54.05
2017-06-24T07:58:55.920Z,53.75
2017-06-24T07:59:21.440Z,53.85
2017-06-24T07:59:46.964Z,53.75
2017-06-24T08:00:12.468Z,53.56
2017-06-24T08:00:37.935Z,53.66
2017-06-24T08:01:03.408Z,53.66
2017-06-24T08:01:28.875Z,53.08
2017-06-24T08:01:54.382Z,53.47
2017-06-24T08:02:19.865Z,53.47
2017-06-24T08:02:45.387Z,53.37
2017-06-24T08:03:10.894Z,53.17
2017-06-24T08:03:36.482Z,53.08
2017-06-24T08:04:02.225Z,53.08
2017-06-24T08:04:27.927Z,53.17
2017-06-24T08:04:53.391Z,53.37
2017-06-24T08:05:19.038Z,53.17
2017-06-24T08:05:44.618Z,53.17
2017-06-24T08:06:10.124Z,52.98
2017-06-24T08:06:35.575Z,53.08
2017-06-24T08:07:01.053Z,52.79
2017-06-24T08:07:26.555Z,52.79
2017-06-24T08:07:52.031Z,52.98
2017-06-24T08:08:17.553Z,52.89
2017-06-24T08:08:43.262Z,52.79
2017-06-24T08:09:08.605Z,53.27
2017-06-24T08:09:34.067Z,53.08
2017-06-24T08:09:59.552Z,52.98
2017-06-24T08:10:25.020Z,53.17
2017-06-24T08:10:50.497Z,52.69
2017-06-24T08:11:15.987Z,53.08
2017-06-24T08:11:41.529Z,53.56
2017-06-24T08:12:07.150Z,53.63
2017-06-24T08:12:32.634Z,53.75
2017-06-24T08:12:58.179Z,53.73
2017-06-24T08:13:23.778Z,53.75
2017-06-24T08:13:49.250Z,53.75
2017-06-24T08:14:14.768Z,53.56
2017-06-24T08:14:40.252Z,53.47
2017-06-24T08:15:05.754Z,53.66
2017-06-24T08:15:31.238Z,53.17
2017-06-24T08:15:56.738Z,53.75
2017-06-24T08:16:22.211Z,53.75
2017-06-24T08:16:47.680Z,53.47
2017-06-24T08:17:13.184Z,53.47
2017-06-24T08:17:38.790Z,53.27
2017-06-24T08:18:04.202Z,53.27
2017-06-24T08:18:29.710Z,53.08
2017-06-24T08:18:55.214Z,52.89
2017-06-24T08:19:20.784Z,52.89
2017-06-24T08:19:46.243Z,52.69
2017-06-24T08:20:11.760Z,52.5
2017-06-24T08:20:37.248Z,51.92
2017-06-24T08:21:02.728Z,52.11
2017-06-24T08:21:28.224Z,51.73
2017-06-24T08:21:53.700Z,52.21
2017-06-24T08:22:19.182Z,52.59
2017-06-24T08:22:44.670Z,52.31
2017-06-24T08:23:10.163Z,52.21
2017-06-24T08:23:35.647Z,52.59
2017-06-24T08:24:01.128Z,52.79
2017-06-24T08:24:26.610Z,52.79
2017-06-24T08:24:52.099Z,52.89
2017-06-24T08:25:17.577Z,52.79
2017-06-24T08:25:43.092Z,52.79
2017-06-24T08:26:08.570Z,53.08
2017-06-24T08:26:34.059Z,53.27
2017-06-24T08:26:59.537Z,53.37
2017-06-24T08:27:25.020Z,52.98
2017-06-24T08:27:50.481Z,52.98
2017-06-24T08:28:15.962Z,53.08
2017-06-24T08:28:41.438Z,52.98
2017-06-24T08:29:06.923Z,52.89
2017-06-24T08:29:32.415Z,53.17
2017-06-24T08:29:57.913Z,52.98
2017-06-24T08:30:23.409Z,53.56
2017-06-24T08:30:48.898Z,53.17
2017-06-24T08:31:14.360Z,53.08
2017-06-24T08:31:39.858Z,52.79
2017-06-24T08:32:05.336Z,52.98
2017-06-24T08:32:30.800Z,52.69
2017-06-24T08:32:56.279Z,52.79
2017-06-24T08:33:21.737Z,53.27
2017-06-24T08:33:47.229Z,52.79
2017-06-24T08:34:12.718Z,52.98
2017-06-24T08:34:38.178Z,52.69
2017-06-24T08:35:03.689Z,52.69
2017-06-24T08:35:29.161Z,52.98
2017-06-24T08:35:54.630Z,52.79
2017-06-24T08:36:20.104Z,52.98
2017-06-24T08:36:45.593Z,52.89
2017-06-24T08:37:11.061Z,52.21
2017-06-24T08:37:36.562Z,52.31
2017-06-24T08:38:02.047Z,52.11
2017-06-24T08:38:27.551Z,52.21
2017-06-24T08:38:53.068Z,52.4
2017-06-24T08:39:18.548Z,52.5
2017-06-24T08:39:44.014Z,52.69
2017-06-24T08:40:09.500Z,52.5
2017-06-24T08:40:34.969Z,52.5
2017-06-24T08:41:00.428Z,52.01
2017-06-24T08:41:25.906Z,51.82
2017-06-24T08:41:51.387Z,51.92
2017-06-24T08:42:16.839Z,52.11
2017-06-24T08:42:42.293Z,51.92
2017-06-24T08:43:07.783Z,52.5
2017-06-24T08:43:33.272Z,52.31
2017-06-24T08:43:58.766Z,52.31
2017-06-24T08:44:24.304Z,52.53
2017-06-24T08:44:49.774Z,52.33
2017-06-24T08:45:15.229Z,52.04
2017-06-24T08:45:40.745Z,51.85
2017-06-24T08:46:06.211Z,51.85
2017-06-24T08:46:31.696Z,51.56
2017-06-24T08:46:57.177Z,51.75
2017-06-24T08:47:22.676Z,51.37
2017-06-24T08:47:48.166Z,51.37
2017-06-24T08:48:13.660Z,50.91
2017-06-24T08:48:39.165Z,51.2
2017-06-24T08:49:04.617Z,51.01
2017-06-24T08:49:30.110Z,51.01
2017-06-24T08:49:55.573Z,50.81
2017-06-24T08:50:21.058Z,50.91
2017-06-24T08:50:46.555Z,51.1
2017-06-24T08:51:12.038Z,51.01
2017-06-24T08:51:37.528Z,50.23
2017-06-24T08:52:03.025Z,50.23
2017-06-24T08:52:28.496Z,50.23
2017-06-24T08:52:54.022Z,50.23
2017-06-24T08:53:19.475Z,50.04
2017-06-24T08:53:44.955Z,50.23
2017-06-24T08:54:10.424Z,50.33
2017-06-24T08:54:35.926Z,50.04
2017-06-24T08:55:01.419Z,50.33
2017-06-24T08:55:26.915Z,50.33
2017-06-24T08:55:52.397Z,50.16
2017-06-24T08:56:17.864Z,50.07
2017-06-24T08:56:43.335Z,50.07
2017-06-24T08:57:08.827Z,50.26
2017-06-24T08:57:34.312Z,50.26
2017-06-24T08:57:59.804Z,49.77
2017-06-24T08:58:25.276Z,49.97
2017-06-24T08:58:50.757Z,49.77
2017-06-24T08:59:16.219Z,49.58
2017-06-24T08:59:41.704Z,49.58
2017-06-24T09:00:07.204Z,49.39
2017-06-24T09:00:32.692Z,49.68
2017-06-24T09:00:58.319Z,48.74
2017-06-24T09:01:23.989Z,49
2017-06-24T09:01:49.569Z,49.12
2017-06-24T09:02:15.162Z,48.93
2017-06-24T09:02:40.693Z,48.93
2017-06-24T09:03:06.190Z,49.02
2017-06-24T09:03:31.808Z,48.93
2017-06-24T09:03:57.386Z,49.02
2017-06-24T09:04:22.895Z,49.02
2017-06-24T09:04:48.394Z,48.74
2017-06-24T09:05:13.931Z,48.81
2017-06-24T09:05:39.425Z,49
2017-06-24T09:06:04.953Z,48.74
2017-06-24T09:06:30.476Z,48.9
2017-06-24T09:06:55.973Z,49
2017-06-24T09:07:21.677Z,49.1
2017-06-24T09:07:47.123Z,48.42
2017-06-24T09:08:12.661Z,48.32
2017-06-24T09:08:38.262Z,48.71
2017-06-24T09:09:03.816Z,48.61
2017-06-24T09:09:29.393Z,48.42
2017-06-24T09:09:54.876Z,48.59
2017-06-24T09:10:20.355Z,48.69
2017-06-24T09:10:45.826Z,49.07
2017-06-24T09:11:11.309Z,49.27
2017-06-24T09:11:36.804Z,49.37
2017-06-24T09:12:02.376Z,49.95
2017-06-24T09:12:27.816Z,49.95
2017-06-24T09:12:53.299Z,49.75
2017-06-24T09:13:18.780Z,49.92
2017-06-24T09:13:44.253Z,50.4
2017-06-24T09:14:09.739Z,50.21
2017-06-24T09:14:35.182Z,50.31
2017-06-24T09:15:00.697Z,50.4
2017-06-24T09:15:26.183Z,50.31
2017-06-24T09:15:51.905Z,50.5
2017-06-24T09:16:17.491Z,50.69
2017-06-24T09:16:43.156Z,50.31
2017-06-24T09:17:08.687Z,50.86
2017-06-24T09:17:34.166Z,50.59
2017-06-24T09:17:59.715Z,50.86
2017-06-24T09:18:25.203Z,50.96
2017-06-24T09:18:50.704Z,51.05
2017-06-24T09:19:16.245Z,51.15
2017-06-24T09:19:41.746Z,51.44
2017-06-24T09:20:07.366Z,51.34
2017-06-24T09:20:33.166Z,51.53
2017-06-24T09:20:58.792Z,51.73
2017-06-24T09:21:24.379Z,51.63
2017-06-24T09:21:50.030Z,51.63
2017-06-24T09:22:15.527Z,51.92
2017-06-24T09:22:41.130Z,52.01
2017-06-24T09:23:06.692Z,52.11
2017-06-24T09:23:32.369Z,51.82
2017-06-24T09:23:57.975Z,52.01
2017-06-24T09:24:23.517Z,51.92
2017-06-24T09:24:49.018Z,51.92
2017-06-24T09:25:14.531Z,52.11
2017-06-24T09:25:39.993Z,52.5
2017-06-24T09:26:05.472Z,52.31
2017-06-24T09:26:31.020Z,52.28
2017-06-24T09:26:56.680Z,52.19
2017-06-24T09:27:22.136Z,52.28
2017-06-24T09:27:47.644Z,52.47
2017-06-24T09:28:13.269Z,52.37
2017-06-24T09:28:38.749Z,52.19
2017-06-24T09:29:04.218Z,51.89
2017-06-24T09:29:29.712Z,52.47
2017-06-24T09:29:55.172Z,52.86